sensor_id;sensor_type;location;lat;lon;timestamp;temperature;humidity
56234;DHT22;42141;53.240;6.580;2022-12-07T00:00:55;4.70;99.90
56234;DHT22;42141;53.240;6.580;2022-12-07T00:03:29;3.90;99.90
56234;DHT22;42141;53.240;6.580;2022-12-07T00:05:57;3.90;99.90
56234;DHT22;42141;53.240;6.580;2022-12-07T00:08:23;3.90;99.90
56234;DHT22;42141;53.240;6.580;2022-12-07T00:10:49;3.90;99.90
56234;DHT22;42141;53.240;6.580;2022-12-07T00:13:14;3.90;99.90
56234;DHT22;42141;53.240;6.580;2022-12-07T00:15:40;4.40;99.90
56234;DHT22;42141;53.240;6.580;2022-12-07T00:18:05;4.10;99.90
56234;DHT22;42141;53.240;6.580;2022-12-07T00:20:31;3.90;99.90
56234;DHT22;42141;53.240;6.580;2022-12-07T00:22:58;3.80;99.90
56234;DHT22;42141;53.240;6.580;2022-12-07T00:25:25;3.90;99.90
56234;DHT22;42141;53.240;6.580;2022-12-07T00:27:52;3.90;99.90
56234;DHT22;42141;53.240;6.580;2022-12-07T00:30:18;3.90;99.90
56234;DHT22;42141;53.240;6.580;2022-12-07T00:32:44;3.90;99.90
56234;DHT22;42141;53.240;6.580;2022-12-07T00:35:09;3.90;99.90
56234;DHT22;42141;53.240;6.580;2022-12-07T00:37:35;3.90;99.90
56234;DHT22;42141;53.240;6.580;2022-12-07T00:40:00;4.70;99.90
56234;DHT22;42141;53.240;6.580;2022-12-07T00:42:26;4.80;99.90
56234;DHT22;42141;53.240;6.580;2022-12-07T00:44:52;4.10;99.90
56234;DHT22;42141;53.240;6.580;2022-12-07T00:47:17;4.10;99.90
56234;DHT22;42141;53.240;6.580;2022-12-07T00:49:43;4.20;99.90
56234;DHT22;42141;53.240;6.580;2022-12-07T00:52:09;4.20;99.90
56234;DHT22;42141;53.240;6.580;2022-12-07T00:54:34;4.70;99.90
56234;DHT22;42141;53.240;6.580;2022-12-07T00:57:00;4.30;99.90
56234;DHT22;42141;53.240;6.580;2022-12-07T00:59:25;4.30;99.90
56234;DHT22;42141;53.240;6.580;2022-12-07T01:01:51;4.30;99.90
56234;DHT22;42141;53.240;6.580;2022-12-07T01:04:17;4.30;99.90
56234;DHT22;42141;53.240;6.580;2022-12-07T01:06:42;4.30;99.90
56234;DHT22;42141;53.240;6.580;2022-12-07T01:09:08;4.30;99.90
56234;DHT22;42141;53.240;6.580;2022-12-07T01:11:34;4.60;99.90
56234;DHT22;42141;53.240;6.580;2022-12-07T01:14:00;5.40;99.90
56234;DHT22;42141;53.240;6.580;2022-12-07T01:16:28;4.20;99.90
56234;DHT22;42141;53.240;6.580;2022-12-07T01:18:55;4.20;99.90
56234;DHT22;42141;53.240;6.580;2022-12-07T01:21:24;5.40;99.90
56234;DHT22;42141;53.240;6.580;2022-12-07T01:23:50;4.10;99.90
56234;DHT22;42141;53.240;6.580;2022-12-07T01:26:19;4.00;99.90
56234;DHT22;42141;53.240;6.580;2022-12-07T01:28:45;4.00;99.90
56234;DHT22;42141;53.240;6.580;2022-12-07T01:31:14;4.00;99.90
56234;DHT22;42141;53.240;6.580;2022-12-07T01:33:42;4.00;99.90
56234;DHT22;42141;53.240;6.580;2022-12-07T01:38:46;4.10;99.90
56234;DHT22;42141;53.240;6.580;2022-12-07T01:41:12;4.10;99.90
56234;DHT22;42141;53.240;6.580;2022-12-07T01:46:34;4.20;99.90
56234;DHT22;42141;53.240;6.580;2022-12-07T01:49:01;4.20;99.90
56234;DHT22;42141;53.240;6.580;2022-12-07T01:51:28;4.50;99.90
56234;DHT22;42141;53.240;6.580;2022-12-07T01:53:55;4.30;99.90
56234;DHT22;42141;53.240;6.580;2022-12-07T01:56:25;4.30;99.90
56234;DHT22;42141;53.240;6.580;2022-12-07T01:58:52;4.30;99.90
56234;DHT22;42141;53.240;6.580;2022-12-07T02:01:19;4.30;99.90
56234;DHT22;42141;53.240;6.580;2022-12-07T02:03:45;4.30;99.90
56234;DHT22;42141;53.240;6.580;2022-12-07T02:06:14;4.20;99.90
56234;DHT22;42141;53.240;6.580;2022-12-07T02:08:42;4.10;99.90
56234;DHT22;42141;53.240;6.580;2022-12-07T02:11:09;4.00;99.90
56234;DHT22;42141;53.240;6.580;2022-12-07T02:13:37;3.90;99.90
56234;DHT22;42141;53.240;6.580;2022-12-07T02:29:56;3.60;99.90
56234;DHT22;42141;53.240;6.580;2022-12-07T02:32:44;3.60;99.90
56234;DHT22;42141;53.240;6.580;2022-12-07T02:35:12;3.50;99.90
56234;DHT22;42141;53.240;6.580;2022-12-07T02:38:02;3.50;99.90
56234;DHT22;42141;53.240;6.580;2022-12-07T02:43:18;3.50;99.90
56234;DHT22;42141;53.240;6.580;2022-12-07T02:45:46;4.30;99.90
56234;DHT22;42141;53.240;6.580;2022-12-07T02:48:15;3.90;99.90
56234;DHT22;42141;53.240;6.580;2022-12-07T02:50:52;3.70;99.90
56234;DHT22;42141;53.240;6.580;2022-12-07T02:53:35;3.80;99.90
56234;DHT22;42141;53.240;6.580;2022-12-07T03:10:08;3.90;99.90
56234;DHT22;42141;53.240;6.580;2022-12-07T03:15:29;3.90;99.90
56234;DHT22;42141;53.240;6.580;2022-12-07T03:17:58;3.90;99.90
56234;DHT22;42141;53.240;6.580;2022-12-07T03:20:25;5.10;99.90
56234;DHT22;42141;53.240;6.580;2022-12-07T03:22:52;3.90;99.90
56234;DHT22;42141;53.240;6.580;2022-12-07T03:25:19;4.50;99.90
56234;DHT22;42141;53.240;6.580;2022-12-07T03:27:55;3.90;99.90
56234;DHT22;42141;53.240;6.580;2022-12-07T03:30:27;3.90;99.90
56234;DHT22;42141;53.240;6.580;2022-12-07T03:33:07;5.00;99.90
56234;DHT22;42141;53.240;6.580;2022-12-07T03:36:28;4.00;99.90
56234;DHT22;42141;53.240;6.580;2022-12-07T03:38:48;4.00;99.90
56234;DHT22;42141;53.240;6.580;2022-12-07T03:41:21;4.00;99.90
56234;DHT22;42141;53.240;6.580;2022-12-07T03:43:47;4.00;99.90
56234;DHT22;42141;53.240;6.580;2022-12-07T03:57:07;4.00;99.90
56234;DHT22;42141;53.240;6.580;2022-12-07T03:59:34;4.00;99.90
56234;DHT22;42141;53.240;6.580;2022-12-07T04:02:05;4.00;99.90
56234;DHT22;42141;53.240;6.580;2022-12-07T04:04:32;3.90;99.90
56234;DHT22;42141;53.240;6.580;2022-12-07T04:06:58;3.90;99.90
56234;DHT22;42141;53.240;6.580;2022-12-07T04:09:24;3.90;99.90
56234;DHT22;42141;53.240;6.580;2022-12-07T04:11:50;4.10;99.90
56234;DHT22;42141;53.240;6.580;2022-12-07T04:14:16;3.80;99.90
56234;DHT22;42141;53.240;6.580;2022-12-07T04:16:49;4.90;99.90
56234;DHT22;42141;53.240;6.580;2022-12-07T04:19:16;3.60;99.90
56234;DHT22;42141;53.240;6.580;2022-12-07T04:21:42;4.60;99.90
56234;DHT22;42141;53.240;6.580;2022-12-07T04:24:08;3.50;99.90
56234;DHT22;42141;53.240;6.580;2022-12-07T04:26:34;3.50;99.90
56234;DHT22;42141;53.240;6.580;2022-12-07T04:29:00;4.30;99.90
56234;DHT22;42141;53.240;6.580;2022-12-07T04:31:26;3.50;99.90
56234;DHT22;42141;53.240;6.580;2022-12-07T04:33:51;3.50;99.90
56234;DHT22;42141;53.240;6.580;2022-12-07T04:36:17;3.50;99.90
56234;DHT22;42141;53.240;6.580;2022-12-07T04:38:45;3.50;99.90
56234;DHT22;42141;53.240;6.580;2022-12-07T04:41:10;3.60;99.90
56234;DHT22;42141;53.240;6.580;2022-12-07T04:43:36;3.60;99.90
56234;DHT22;42141;53.240;6.580;2022-12-07T04:46:02;3.60;99.90
56234;DHT22;42141;53.240;6.580;2022-12-07T04:48:28;4.70;99.90
56234;DHT22;42141;53.240;6.580;2022-12-07T04:50:53;3.60;99.90
56234;DHT22;42141;53.240;6.580;2022-12-07T04:53:19;3.50;99.90
56234;DHT22;42141;53.240;6.580;2022-12-07T04:55:45;3.50;99.90
56234;DHT22;42141;53.240;6.580;2022-12-07T04:58:12;3.50;99.90
56234;DHT22;42141;53.240;6.580;2022-12-07T05:00:38;3.40;99.90
56234;DHT22;42141;53.240;6.580;2022-12-07T05:03:04;4.40;99.90
56234;DHT22;42141;53.240;6.580;2022-12-07T05:05:30;3.30;99.90
56234;DHT22;42141;53.240;6.580;2022-12-07T05:07:56;4.10;99.90
56234;DHT22;42141;53.240;6.580;2022-12-07T05:10:22;3.10;99.90
56234;DHT22;42141;53.240;6.580;2022-12-07T05:12:47;3.10;99.90
56234;DHT22;42141;53.240;6.580;2022-12-07T05:15:14;3.50;99.90
56234;DHT22;42141;53.240;6.580;2022-12-07T05:17:40;2.90;99.90
56234;DHT22;42141;53.240;6.580;2022-12-07T05:20:08;2.90;99.90
56234;DHT22;42141;53.240;6.580;2022-12-07T05:22:33;2.80;99.90
56234;DHT22;42141;53.240;6.580;2022-12-07T05:24:59;2.80;99.90
56234;DHT22;42141;53.240;6.580;2022-12-07T05:27:25;2.70;99.90
56234;DHT22;42141;53.240;6.580;2022-12-07T05:29:51;2.70;99.90
56234;DHT22;42141;53.240;6.580;2022-12-07T05:32:17;2.60;99.90
56234;DHT22;42141;53.240;6.580;2022-12-07T05:34:42;2.50;99.90
56234;DHT22;42141;53.240;6.580;2022-12-07T05:37:08;2.50;99.90
56234;DHT22;42141;53.240;6.580;2022-12-07T05:39:34;2.80;99.90
56234;DHT22;42141;53.240;6.580;2022-12-07T05:41:59;2.50;99.90
56234;DHT22;42141;53.240;6.580;2022-12-07T05:44:41;2.50;99.90
56234;DHT22;42141;53.240;6.580;2022-12-07T05:47:08;3.20;99.90
56234;DHT22;42141;53.240;6.580;2022-12-07T05:49:34;2.50;99.90
56234;DHT22;42141;53.240;6.580;2022-12-07T05:52:01;3.50;99.90
56234;DHT22;42141;53.240;6.580;2022-12-07T05:54:26;2.60;99.90
56234;DHT22;42141;53.240;6.580;2022-12-07T05:56:52;2.60;99.90
56234;DHT22;42141;53.240;6.580;2022-12-07T05:59:17;2.70;99.90
56234;DHT22;42141;53.240;6.580;2022-12-07T06:01:52;2.70;99.90
56234;DHT22;42141;53.240;6.580;2022-12-07T06:04:18;2.70;99.90
56234;DHT22;42141;53.240;6.580;2022-12-07T06:06:44;2.80;99.90
56234;DHT22;42141;53.240;6.580;2022-12-07T06:09:10;2.80;99.90
56234;DHT22;42141;53.240;6.580;2022-12-07T06:11:37;2.90;99.90
56234;DHT22;42141;53.240;6.580;2022-12-07T06:14:21;3.00;99.90
56234;DHT22;42141;53.240;6.580;2022-12-07T06:16:46;3.10;99.90
56234;DHT22;42141;53.240;6.580;2022-12-07T06:19:12;3.10;99.90
56234;DHT22;42141;53.240;6.580;2022-12-07T06:21:38;3.20;99.90
56234;DHT22;42141;53.240;6.580;2022-12-07T06:24:04;3.20;99.90
56234;DHT22;42141;53.240;6.580;2022-12-07T06:26:30;3.20;99.90
56234;DHT22;42141;53.240;6.580;2022-12-07T06:28:55;3.20;99.90
56234;DHT22;42141;53.240;6.580;2022-12-07T06:31:21;3.20;99.90
56234;DHT22;42141;53.240;6.580;2022-12-07T06:33:47;3.20;99.90
56234;DHT22;42141;53.240;6.580;2022-12-07T06:36:13;3.70;99.90
56234;DHT22;42141;53.240;6.580;2022-12-07T06:38:39;3.00;99.90
56234;DHT22;42141;53.240;6.580;2022-12-07T06:41:05;3.00;99.90
56234;DHT22;42141;53.240;6.580;2022-12-07T06:43:30;2.90;99.90
56234;DHT22;42141;53.240;6.580;2022-12-07T06:45:56;3.40;99.90
56234;DHT22;42141;53.240;6.580;2022-12-07T06:48:22;2.80;99.90
56234;DHT22;42141;53.240;6.580;2022-12-07T06:50:48;2.80;99.90
56234;DHT22;42141;53.240;6.580;2022-12-07T06:53:13;2.60;99.90
56234;DHT22;42141;53.240;6.580;2022-12-07T06:55:39;2.60;99.90
56234;DHT22;42141;53.240;6.580;2022-12-07T06:58:05;2.60;99.90
56234;DHT22;42141;53.240;6.580;2022-12-07T07:00:31;2.50;99.90
56234;DHT22;42141;53.240;6.580;2022-12-07T07:02:56;2.50;99.90
56234;DHT22;42141;53.240;6.580;2022-12-07T07:05:22;2.60;99.90
56234;DHT22;42141;53.240;6.580;2022-12-07T07:07:51;2.70;99.90
56234;DHT22;42141;53.240;6.580;2022-12-07T07:10:16;2.80;99.90
56234;DHT22;42141;53.240;6.580;2022-12-07T07:12:42;3.00;99.90
56234;DHT22;42141;53.240;6.580;2022-12-07T07:15:08;3.00;99.90
56234;DHT22;42141;53.240;6.580;2022-12-07T07:17:35;3.10;99.90
56234;DHT22;42141;53.240;6.580;2022-12-07T07:20:00;3.20;99.90
56234;DHT22;42141;53.240;6.580;2022-12-07T07:22:26;3.80;99.90
56234;DHT22;42141;53.240;6.580;2022-12-07T07:24:52;3.30;99.90
56234;DHT22;42141;53.240;6.580;2022-12-07T07:27:17;3.40;99.90
56234;DHT22;42141;53.240;6.580;2022-12-07T07:29:43;4.50;99.90
56234;DHT22;42141;53.240;6.580;2022-12-07T07:32:08;3.60;99.90
56234;DHT22;42141;53.240;6.580;2022-12-07T07:34:34;3.70;99.90
56234;DHT22;42141;53.240;6.580;2022-12-07T07:37:00;3.70;99.90
56234;DHT22;42141;53.240;6.580;2022-12-07T07:39:26;3.70;99.90
56234;DHT22;42141;53.240;6.580;2022-12-07T07:41:52;3.70;99.90
56234;DHT22;42141;53.240;6.580;2022-12-07T07:44:17;3.80;99.90
56234;DHT22;42141;53.240;6.580;2022-12-07T07:46:43;3.80;99.90
56234;DHT22;42141;53.240;6.580;2022-12-07T07:49:09;3.70;99.90
56234;DHT22;42141;53.240;6.580;2022-12-07T07:51:36;3.70;99.90
56234;DHT22;42141;53.240;6.580;2022-12-07T07:54:02;3.60;99.90
56234;DHT22;42141;53.240;6.580;2022-12-07T07:56:27;3.60;99.90
56234;DHT22;42141;53.240;6.580;2022-12-07T07:58:53;3.20;99.90
56234;DHT22;42141;53.240;6.580;2022-12-07T08:01:19;3.50;99.90
56234;DHT22;42141;53.240;6.580;2022-12-07T08:03:48;3.40;99.90
56234;DHT22;42141;53.240;6.580;2022-12-07T08:06:14;3.40;99.90
56234;DHT22;42141;53.240;6.580;2022-12-07T08:08:40;3.30;99.90
56234;DHT22;42141;53.240;6.580;2022-12-07T08:11:06;3.30;99.90
56234;DHT22;42141;53.240;6.580;2022-12-07T08:13:32;3.20;99.90
56234;DHT22;42141;53.240;6.580;2022-12-07T08:15:58;3.20;99.90
56234;DHT22;42141;53.240;6.580;2022-12-07T08:18:28;3.20;99.90
56234;DHT22;42141;53.240;6.580;2022-12-07T08:20:59;3.10;99.90
56234;DHT22;42141;53.240;6.580;2022-12-07T08:23:26;3.10;99.90
56234;DHT22;42141;53.240;6.580;2022-12-07T08:25:52;3.10;99.90
56234;DHT22;42141;53.240;6.580;2022-12-07T08:28:18;3.10;99.90
56234;DHT22;42141;53.240;6.580;2022-12-07T08:30:43;3.10;99.90
56234;DHT22;42141;53.240;6.580;2022-12-07T08:33:10;3.20;99.90
56234;DHT22;42141;53.240;6.580;2022-12-07T08:35:36;3.20;99.90
56234;DHT22;42141;53.240;6.580;2022-12-07T08:38:02;3.20;99.90
56234;DHT22;42141;53.240;6.580;2022-12-07T08:40:29;3.30;99.90
56234;DHT22;42141;53.240;6.580;2022-12-07T08:42:55;3.40;99.90
56234;DHT22;42141;53.240;6.580;2022-12-07T08:45:21;3.40;99.90
56234;DHT22;42141;53.240;6.580;2022-12-07T08:48:03;3.50;99.90
56234;DHT22;42141;53.240;6.580;2022-12-07T08:50:31;3.50;99.90
56234;DHT22;42141;53.240;6.580;2022-12-07T08:53:00;3.50;99.90
56234;DHT22;42141;53.240;6.580;2022-12-07T08:55:27;3.60;99.90
56234;DHT22;42141;53.240;6.580;2022-12-07T08:57:54;4.70;99.90
56234;DHT22;42141;53.240;6.580;2022-12-07T09:00:20;3.90;99.90
56234;DHT22;42141;53.240;6.580;2022-12-07T09:02:46;3.80;99.90
56234;DHT22;42141;53.240;6.580;2022-12-07T09:05:12;3.90;99.90
56234;DHT22;42141;53.240;6.580;2022-12-07T09:07:41;4.00;99.90
56234;DHT22;42141;53.240;6.580;2022-12-07T09:10:09;4.10;99.90
56234;DHT22;42141;53.240;6.580;2022-12-07T09:12:34;4.10;99.90
56234;DHT22;42141;53.240;6.580;2022-12-07T09:15:00;4.10;99.90
56234;DHT22;42141;53.240;6.580;2022-12-07T09:17:26;4.20;99.90
56234;DHT22;42141;53.240;6.580;2022-12-07T09:19:51;4.30;99.90
56234;DHT22;42141;53.240;6.580;2022-12-07T09:22:17;5.80;99.90
56234;DHT22;42141;53.240;6.580;2022-12-07T09:24:43;4.60;99.90
56234;DHT22;42141;53.240;6.580;2022-12-07T09:27:11;5.70;99.90
56234;DHT22;42141;53.240;6.580;2022-12-07T09:29:37;4.80;99.90
56234;DHT22;42141;53.240;6.580;2022-12-07T09:32:03;4.90;99.90
56234;DHT22;42141;53.240;6.580;2022-12-07T09:34:31;5.00;99.90
56234;DHT22;42141;53.240;6.580;2022-12-07T09:36:57;5.10;99.90
56234;DHT22;42141;53.240;6.580;2022-12-07T09:39:23;5.10;99.90
56234;DHT22;42141;53.240;6.580;2022-12-07T09:41:48;5.10;99.90
56234;DHT22;42141;53.240;6.580;2022-12-07T09:44:21;6.40;99.90
56234;DHT22;42141;53.240;6.580;2022-12-07T09:46:48;5.20;99.90
56234;DHT22;42141;53.240;6.580;2022-12-07T09:49:21;5.20;99.90
56234;DHT22;42141;53.240;6.580;2022-12-07T09:51:58;5.30;99.90
56234;DHT22;42141;53.240;6.580;2022-12-07T09:54:24;6.50;99.90
56234;DHT22;42141;53.240;6.580;2022-12-07T09:56:50;5.30;99.90
56234;DHT22;42141;53.240;6.580;2022-12-07T09:59:17;5.30;99.90
56234;DHT22;42141;53.240;6.580;2022-12-07T10:01:45;5.30;99.90
56234;DHT22;42141;53.240;6.580;2022-12-07T10:04:21;5.30;99.90
56234;DHT22;42141;53.240;6.580;2022-12-07T10:06:47;5.30;99.90
56234;DHT22;42141;53.240;6.580;2022-12-07T10:09:15;6.40;99.90
56234;DHT22;42141;53.240;6.580;2022-12-07T10:12:08;5.50;99.90
56234;DHT22;42141;53.240;6.580;2022-12-07T10:14:57;5.60;99.90
56234;DHT22;42141;53.240;6.580;2022-12-07T10:17:38;5.60;99.90
56234;DHT22;42141;53.240;6.580;2022-12-07T10:22:38;5.70;99.90
56234;DHT22;42141;53.240;6.580;2022-12-07T10:25:31;5.70;99.90
56234;DHT22;42141;53.240;6.580;2022-12-07T10:28:20;5.70;99.90
56234;DHT22;42141;53.240;6.580;2022-12-07T10:30:59;5.80;99.90
56234;DHT22;42141;53.240;6.580;2022-12-07T10:33:38;6.00;99.90
56234;DHT22;42141;53.240;6.580;2022-12-07T10:39:11;6.00;99.90
56234;DHT22;42141;53.240;6.580;2022-12-07T10:44:28;6.00;99.90
56234;DHT22;42141;53.240;6.580;2022-12-07T10:47:20;6.10;99.90
56234;DHT22;42141;53.240;6.580;2022-12-07T10:55:32;6.10;99.90
56234;DHT22;42141;53.240;6.580;2022-12-07T11:06:26;5.80;99.90
56234;DHT22;42141;53.240;6.580;2022-12-07T11:11:38;5.70;99.90
56234;DHT22;42141;53.240;6.580;2022-12-07T11:14:14;5.70;99.90
56234;DHT22;42141;53.240;6.580;2022-12-07T11:17:01;6.70;99.90
56234;DHT22;42141;53.240;6.580;2022-12-07T11:25:27;5.50;99.90
56234;DHT22;42141;53.240;6.580;2022-12-07T11:28:24;6.10;99.90
56234;DHT22;42141;53.240;6.580;2022-12-07T11:33:54;5.50;99.90
56234;DHT22;42141;53.240;6.580;2022-12-07T11:36:43;5.60;99.90
56234;DHT22;42141;53.240;6.580;2022-12-07T11:47:54;6.00;99.90
56234;DHT22;42141;53.240;6.580;2022-12-07T11:53:27;6.00;99.90
56234;DHT22;42141;53.240;6.580;2022-12-07T11:56:02;6.00;99.90
56234;DHT22;42141;53.240;6.580;2022-12-07T12:03:56;5.90;99.90
56234;DHT22;42141;53.240;6.580;2022-12-07T12:06:23;5.90;99.90
56234;DHT22;42141;53.240;6.580;2022-12-07T12:09:26;5.90;99.90
56234;DHT22;42141;53.240;6.580;2022-12-07T12:14:48;5.80;99.90
56234;DHT22;42141;53.240;6.580;2022-12-07T12:20:13;5.80;99.90
56234;DHT22;42141;53.240;6.580;2022-12-07T12:23:01;5.70;99.90
56234;DHT22;42141;53.240;6.580;2022-12-07T12:25:49;6.30;99.90
56234;DHT22;42141;53.240;6.580;2022-12-07T12:28:38;5.80;99.90
56234;DHT22;42141;53.240;6.580;2022-12-07T12:31:29;5.80;99.90
56234;DHT22;42141;53.240;6.580;2022-12-07T12:33:58;5.80;99.90
56234;DHT22;42141;53.240;6.580;2022-12-07T12:36:43;6.10;99.90
56234;DHT22;42141;53.240;6.580;2022-12-07T12:39:14;5.80;99.90
56234;DHT22;42141;53.240;6.580;2022-12-07T12:47:01;5.90;99.90
56234;DHT22;42141;53.240;6.580;2022-12-07T12:49:41;5.90;99.90
56234;DHT22;42141;53.240;6.580;2022-12-07T12:55:11;6.00;99.90
56234;DHT22;42141;53.240;6.580;2022-12-07T12:57:37;5.90;99.90
56234;DHT22;42141;53.240;6.580;2022-12-07T13:00:29;5.80;99.90
56234;DHT22;42141;53.240;6.580;2022-12-07T13:02:58;5.80;99.90
56234;DHT22;42141;53.240;6.580;2022-12-07T13:05:31;7.00;99.90
56234;DHT22;42141;53.240;6.580;2022-12-07T13:08:24;5.70;99.90
56234;DHT22;42141;53.240;6.580;2022-12-07T13:10:50;6.80;99.90
56234;DHT22;42141;53.240;6.580;2022-12-07T13:15:45;5.60;99.90
56234;DHT22;42141;53.240;6.580;2022-12-07T13:23:36;5.70;99.90
56234;DHT22;42141;53.240;6.580;2022-12-07T13:26:33;5.70;99.90
56234;DHT22;42141;53.240;6.580;2022-12-07T13:29:16;5.70;99.90
56234;DHT22;42141;53.240;6.580;2022-12-07T13:34:29;5.60;99.90
56234;DHT22;42141;53.240;6.580;2022-12-07T13:36:56;5.70;99.90
56234;DHT22;42141;53.240;6.580;2022-12-07T13:39:24;6.30;99.90
56234;DHT22;42141;53.240;6.580;2022-12-07T13:41:52;5.30;99.90
56234;DHT22;42141;53.240;6.580;2022-12-07T13:44:19;5.20;99.90
56234;DHT22;42141;53.240;6.580;2022-12-07T13:47:09;5.10;99.90
56234;DHT22;42141;53.240;6.580;2022-12-07T13:49:46;5.00;99.90
56234;DHT22;42141;53.240;6.580;2022-12-07T13:52:27;4.90;99.90
56234;DHT22;42141;53.240;6.580;2022-12-07T13:55:05;4.80;99.90
56234;DHT22;42141;53.240;6.580;2022-12-07T13:57:37;4.70;99.90
56234;DHT22;42141;53.240;6.580;2022-12-07T14:00:06;4.70;99.90
56234;DHT22;42141;53.240;6.580;2022-12-07T14:05:26;4.50;99.90
56234;DHT22;42141;53.240;6.580;2022-12-07T14:08:04;4.40;99.90
56234;DHT22;42141;53.240;6.580;2022-12-07T14:10:35;4.40;99.90
56234;DHT22;42141;53.240;6.580;2022-12-07T14:13:04;4.30;99.90
56234;DHT22;42141;53.240;6.580;2022-12-07T14:15:50;4.70;99.90
56234;DHT22;42141;53.240;6.580;2022-12-07T14:18:49;4.20;99.90
56234;DHT22;42141;53.240;6.580;2022-12-07T14:21:17;4.10;99.90
56234;DHT22;42141;53.240;6.580;2022-12-07T14:24:07;4.10;99.90
56234;DHT22;42141;53.240;6.580;2022-12-07T14:26:33;4.10;99.90
56234;DHT22;42141;53.240;6.580;2022-12-07T14:31:51;4.10;99.90
56234;DHT22;42141;53.240;6.580;2022-12-07T14:34:20;4.10;99.90
56234;DHT22;42141;53.240;6.580;2022-12-07T14:36:46;4.10;99.90
56234;DHT22;42141;53.240;6.580;2022-12-07T14:39:11;4.10;99.90
56234;DHT22;42141;53.240;6.580;2022-12-07T14:41:37;5.30;99.90
56234;DHT22;42141;53.240;6.580;2022-12-07T14:44:20;4.20;99.90
56234;DHT22;42141;53.240;6.580;2022-12-07T14:46:47;4.20;99.90
56234;DHT22;42141;53.240;6.580;2022-12-07T14:49:12;4.20;99.90
56234;DHT22;42141;53.240;6.580;2022-12-07T14:51:39;4.20;99.90
56234;DHT22;42141;53.240;6.580;2022-12-07T14:54:14;4.30;99.90
56234;DHT22;42141;53.240;6.580;2022-12-07T14:56:41;4.20;99.90
56234;DHT22;42141;53.240;6.580;2022-12-07T14:59:07;4.40;99.90
56234;DHT22;42141;53.240;6.580;2022-12-07T15:01:33;4.20;99.90
56234;DHT22;42141;53.240;6.580;2022-12-07T15:03:58;4.10;99.90
56234;DHT22;42141;53.240;6.580;2022-12-07T15:06:24;4.10;99.90
56234;DHT22;42141;53.240;6.580;2022-12-07T15:08:50;4.80;99.90
56234;DHT22;42141;53.240;6.580;2022-12-07T15:11:17;4.10;99.90
56234;DHT22;42141;53.240;6.580;2022-12-07T15:13:43;5.00;99.90
56234;DHT22;42141;53.240;6.580;2022-12-07T15:16:27;5.20;99.90
56234;DHT22;42141;53.240;6.580;2022-12-07T15:18:53;4.00;99.90
56234;DHT22;42141;53.240;6.580;2022-12-07T15:21:19;4.00;99.90
56234;DHT22;42141;53.240;6.580;2022-12-07T15:23:46;3.90;99.90
56234;DHT22;42141;53.240;6.580;2022-12-07T15:26:12;5.10;99.90
56234;DHT22;42141;53.240;6.580;2022-12-07T15:28:39;4.10;99.90
56234;DHT22;42141;53.240;6.580;2022-12-07T15:31:11;3.80;99.90
56234;DHT22;42141;53.240;6.580;2022-12-07T15:33:37;3.80;99.90
56234;DHT22;42141;53.240;6.580;2022-12-07T15:36:03;3.80;99.90
56234;DHT22;42141;53.240;6.580;2022-12-07T15:38:29;3.80;99.90
56234;DHT22;42141;53.240;6.580;2022-12-07T15:40:56;4.20;99.90
56234;DHT22;42141;53.240;6.580;2022-12-07T15:43:22;3.80;99.90
56234;DHT22;42141;53.240;6.580;2022-12-07T15:46:09;3.80;99.90
56234;DHT22;42141;53.240;6.580;2022-12-07T15:48:34;3.70;99.90
56234;DHT22;42141;53.240;6.580;2022-12-07T15:51:05;3.70;99.90
56234;DHT22;42141;53.240;6.580;2022-12-07T15:53:31;3.70;99.90
56234;DHT22;42141;53.240;6.580;2022-12-07T15:55:56;3.70;99.90
56234;DHT22;42141;53.240;6.580;2022-12-07T15:58:22;3.70;99.90
56234;DHT22;42141;53.240;6.580;2022-12-07T16:00:48;3.60;99.90
56234;DHT22;42141;53.240;6.580;2022-12-07T16:03:14;3.60;99.90
56234;DHT22;42141;53.240;6.580;2022-12-07T16:05:39;3.60;99.90
56234;DHT22;42141;53.240;6.580;2022-12-07T16:08:05;3.60;99.90
56234;DHT22;42141;53.240;6.580;2022-12-07T16:10:31;3.60;99.90
56234;DHT22;42141;53.240;6.580;2022-12-07T16:12:56;3.60;99.90
56234;DHT22;42141;53.240;6.580;2022-12-07T16:15:22;3.60;99.90
56234;DHT22;42141;53.240;6.580;2022-12-07T16:17:50;3.60;99.90
56234;DHT22;42141;53.240;6.580;2022-12-07T16:20:16;3.60;99.90
56234;DHT22;42141;53.240;6.580;2022-12-07T16:22:41;3.60;99.90
56234;DHT22;42141;53.240;6.580;2022-12-07T16:25:07;3.70;99.90
56234;DHT22;42141;53.240;6.580;2022-12-07T16:27:34;3.70;99.90
56234;DHT22;42141;53.240;6.580;2022-12-07T16:30:00;4.30;99.90
56234;DHT22;42141;53.240;6.580;2022-12-07T16:32:26;3.70;99.90
56234;DHT22;42141;53.240;6.580;2022-12-07T16:34:51;4.30;99.90
56234;DHT22;42141;53.240;6.580;2022-12-07T16:37:17;3.70;99.90
56234;DHT22;42141;53.240;6.580;2022-12-07T16:39:43;3.70;99.90
56234;DHT22;42141;53.240;6.580;2022-12-07T16:42:08;4.50;99.90
56234;DHT22;42141;53.240;6.580;2022-12-07T16:44:34;3.70;99.90
56234;DHT22;42141;53.240;6.580;2022-12-07T16:47:00;3.50;99.90
56234;DHT22;42141;53.240;6.580;2022-12-07T16:49:26;3.50;99.90
56234;DHT22;42141;53.240;6.580;2022-12-07T16:51:52;3.40;99.90
56234;DHT22;42141;53.240;6.580;2022-12-07T16:54:17;3.40;99.90
56234;DHT22;42141;53.240;6.580;2022-12-07T16:56:43;3.70;99.90
56234;DHT22;42141;53.240;6.580;2022-12-07T16:59:09;4.30;99.90
56234;DHT22;42141;53.240;6.580;2022-12-07T17:01:35;3.40;99.90
56234;DHT22;42141;53.240;6.580;2022-12-07T17:04:01;3.40;99.90
56234;DHT22;42141;53.240;6.580;2022-12-07T17:06:28;3.40;99.90
56234;DHT22;42141;53.240;6.580;2022-12-07T17:08:56;3.30;99.90
56234;DHT22;42141;53.240;6.580;2022-12-07T17:11:27;3.90;99.90
56234;DHT22;42141;53.240;6.580;2022-12-07T17:13:54;3.30;99.90
56234;DHT22;42141;53.240;6.580;2022-12-07T17:16:38;3.30;99.90
56234;DHT22;42141;53.240;6.580;2022-12-07T17:19:10;3.30;99.90
56234;DHT22;42141;53.240;6.580;2022-12-07T17:21:37;4.00;99.90
56234;DHT22;42141;53.240;6.580;2022-12-07T17:24:05;3.40;99.90
56234;DHT22;42141;53.240;6.580;2022-12-07T17:26:31;3.40;99.90
56234;DHT22;42141;53.240;6.580;2022-12-07T17:28:58;3.40;99.90
56234;DHT22;42141;53.240;6.580;2022-12-07T17:31:24;3.40;99.90
56234;DHT22;42141;53.240;6.580;2022-12-07T17:33:50;3.40;99.90
56234;DHT22;42141;53.240;6.580;2022-12-07T17:36:25;3.50;99.90
56234;DHT22;42141;53.240;6.580;2022-12-07T17:38:52;3.40;99.90
56234;DHT22;42141;53.240;6.580;2022-12-07T17:41:21;3.50;99.90
56234;DHT22;42141;53.240;6.580;2022-12-07T17:44:08;3.50;99.90
56234;DHT22;42141;53.240;6.580;2022-12-07T17:46:35;3.50;99.90
56234;DHT22;42141;53.240;6.580;2022-12-07T17:49:01;3.50;99.90
56234;DHT22;42141;53.240;6.580;2022-12-07T17:51:27;3.50;99.90
56234;DHT22;42141;53.240;6.580;2022-12-07T17:54:11;4.60;99.90
56234;DHT22;42141;53.240;6.580;2022-12-07T17:56:37;3.50;99.90
56234;DHT22;42141;53.240;6.580;2022-12-07T17:59:04;3.50;99.90
56234;DHT22;42141;53.240;6.580;2022-12-07T18:01:30;3.50;99.90
56234;DHT22;42141;53.240;6.580;2022-12-07T18:03:56;3.50;99.90
56234;DHT22;42141;53.240;6.580;2022-12-07T18:06:22;3.90;99.90
56234;DHT22;42141;53.240;6.580;2022-12-07T18:08:47;3.50;99.90